createdAt,value
2018-06-03T09:07:16.815Z,33.30
2018-06-03T09:46:33.599Z,30.80
2018-06-03T12:14:24.731Z,30.70
2018-06-03T12:16:52.618Z,31.00
2018-06-03T12:19:21.024Z,30.60
2018-06-03T12:21:48.679Z,30.80
2018-06-03T12:24:17.054Z,31.50
2018-06-03T12:26:44.751Z,31.90
2018-06-03T12:29:13.193Z,31.50
2018-06-03T12:31:42.833Z,32.60
2018-06-03T12:34:11.280Z,32.60
2018-06-03T12:36:39.654Z,32.70
2018-06-03T12:39:07.564Z,31.90
2018-06-03T12:41:35.142Z,31.60
2018-06-03T12:44:03.076Z,31.70
2018-06-03T12:46:31.067Z,31.70
2018-06-03T12:48:58.819Z,31.80
2018-06-03T12:51:27.444Z,32.00
2018-06-03T12:53:55.096Z,32.20
2018-06-03T13:11:15.331Z,32.30
2018-06-03T13:13:43.255Z,31.50
2018-06-03T13:16:11.096Z,32.00
2018-06-03T15:08:56.103Z,39.00
2018-06-03T15:11:24.606Z,39.00
2018-06-03T15:13:52.358Z,38.80
2018-06-03T15:16:20.229Z,38.50
2018-06-03T15:18:48.627Z,39.40
2018-06-03T15:21:16.539Z,39.20
2018-06-03T15:23:44.380Z,39.40
2018-06-03T15:26:12.066Z,39.90
2018-06-03T15:31:42.527Z,40.60
2018-06-03T15:34:10.284Z,39.80
2018-06-03T15:36:38.655Z,40.40
2018-06-03T17:53:30.570Z,62.20
2018-06-03T17:55:58.615Z,58.00
2018-06-03T17:58:26.455Z,57.60
2018-06-03T18:06:59.891Z,58.60
2018-06-03T18:09:27.841Z,55.90
2018-06-03T18:11:56.284Z,54.50
2018-06-03T18:14:24.471Z,56.80
